Time;durP1;ratioP1;P1;durP2;ratioP2;P2;SDS_P1;SDS_P2;PMS_P1;PMS_P2;Temp;Humidity;BMP_temperature;BMP_pressure;BME280_temperature;BME280_humidity;BME280_pressure;Samples;Min_cycle;Max_cycle;Signal;HPM_P1;HPM_P2
2022/08/27 00:00:00;;;;;;;0.2;0.2;;;;;;;19.4;100.0;101460;;;;
2022/08/27 00:01:00;;;;;;;0.2;0.2;;;;;;;19.4;100.0;101460;;;;
2022/08/27 00:02:00;;;;;;;0.2;0.2;;;;;;;19.4;100.0;101460;;;;
2022/08/27 00:03:01;;;;;;;0.2;0.2;;;;;;;19.4;100.0;101460;;;;
2022/08/27 00:04:01;;;;;;;0.2;0.2;;;;;;;19.2;100.0;101460;;;;
2022/08/27 00:05:01;;;;;;;0.2;0.2;;;;;;;19.2;100.0;101460;;;;
2022/08/27 00:06:00;;;;;;;0.2;0.2;;;;;;;19.2;100.0;101450;;;;
2022/08/27 00:07:00;;;;;;;0.2;0.2;;;;;;;19.2;100.0;101450;;;;
2022/08/27 00:08:00;;;;;;;0.2;0.2;;;;;;;19.2;100.0;101460;;;;
2022/08/27 00:09:00;;;;;;;0.2;0.2;;;;;;;19.2;100.0;101460;;;;
2022/08/27 00:10:00;;;;;;;0.2;0.2;;;;;;;19.1;100.0;101450;;;;
2022/08/27 00:11:00;;;;;;;0.2;0.2;;;;;;;19.1;100.0;101450;;;;
2022/08/27 00:12:00;;;;;;;0.2;0.2;;;;;;;19.2;100.0;101450;;;;
2022/08/27 00:13:00;;;;;;;0.2;0.2;;;;;;;19.2;100.0;101450;;;;
2022/08/27 00:14:00;;;;;;;0.2;0.2;;;;;;;19.2;100.0;101450;;;;
2022/08/27 00:15:00;;;;;;;0.2;0.2;;;;;;;19.2;100.0;101450;;;;
2022/08/27 00:16:00;;;;;;;0.2;0.2;;;;;;;19.1;100.0;101450;;;;
2022/08/27 00:17:00;;;;;;;0.2;0.2;;;;;;;19.1;100.0;101450;;;;
2022/08/27 00:18:00;;;;;;;0.2;0.2;;;;;;;19.0;100.0;101440;;;;
2022/08/27 00:19:00;;;;;;;0.2;0.2;;;;;;;19.0;100.0;101440;;;;
2022/08/27 00:20:00;;;;;;;0.2;0.2;;;;;;;19.0;100.0;101440;;;;
2022/08/27 00:21:00;;;;;;;0.2;0.2;;;;;;;19.0;100.0;101440;;;;
2022/08/27 00:22:00;;;;;;;0.2;0.2;;;;;;;19.0;100.0;101440;;;;
2022/08/27 00:23:00;;;;;;;0.2;0.2;;;;;;;19.0;100.0;101440;;;;
2022/08/27 00:24:00;;;;;;;0.2;0.2;;;;;;;18.9;100.0;101440;;;;
2022/08/27 00:25:00;;;;;;;0.2;0.2;;;;;;;18.9;100.0;101440;;;;
2022/08/27 00:26:00;;;;;;;0.2;0.2;;;;;;;18.9;100.0;101440;;;;
2022/08/27 00:27:00;;;;;;;0.2;0.2;;;;;;;18.9;100.0;101440;;;;
2022/08/27 00:28:00;;;;;;;0.2;0.2;;;;;;;19.0;100.0;101440;;;;
2022/08/27 00:29:00;;;;;;;0.2;0.2;;;;;;;19.0;100.0;101440;;;;
2022/08/27 00:30:00;;;;;;;0.2;0.2;;;;;;;18.9;100.0;101440;;;;
2022/08/27 00:31:01;;;;;;;0.3;0.3;;;;;;;18.9;100.0;101440;;;;
2022/08/27 00:32:00;;;;;;;0.3;0.3;;;;;;;18.8;100.0;101440;;;;
2022/08/27 00:33:00;;;;;;;0.3;0.3;;;;;;;18.8;100.0;101440;;;;
2022/08/27 00:34:00;;;;;;;0.3;0.3;;;;;;;18.7;100.0;101440;;;;
2022/08/27 00:35:00;;;;;;;0.3;0.3;;;;;;;18.7;100.0;101440;;;;
2022/08/27 00:36:00;;;;;;;0.3;0.3;;;;;;;18.8;100.0;101440;;;;
2022/08/27 00:37:00;;;;;;;0.3;0.3;;;;;;;18.8;100.0;101440;;;;
2022/08/27 00:38:00;;;;;;;0.3;0.3;;;;;;;18.6;100.0;101440;;;;
2022/08/27 00:39:01;;;;;;;0.3;0.3;;;;;;;18.6;100.0;101440;;;;
2022/08/27 00:40:00;;;;;;;0.3;0.3;;;;;;;18.5;100.0;101440;;;;
2022/08/27 00:41:00;;;;;;;0.3;0.3;;;;;;;18.5;100.0;101440;;;;
2022/08/27 00:42:00;;;;;;;0.3;0.3;;;;;;;18.6;100.0;101440;;;;
2022/08/27 00:43:02;;;;;;;0.3;0.3;;;;;;;18.6;100.0;101440;;;;
2022/08/27 00:44:00;;;;;;;0.3;0.3;;;;;;;18.7;100.0;101440;;;;
2022/08/27 00:45:00;;;;;;;0.3;0.3;;;;;;;18.7;100.0;101440;;;;
2022/08/27 00:46:02;;;;;;;0.3;0.3;;;;;;;18.7;100.0;101440;;;;
2022/08/27 00:47:02;;;;;;;0.3;0.3;;;;;;;18.7;100.0;101440;;;;
2022/08/27 00:48:00;;;;;;;0.3;0.3;;;;;;;18.7;100.0;101440;;;;
2022/08/27 00:49:04;;;;;;;0.3;0.3;;;;;;;18.7;100.0;101440;;;;
2022/08/27 00:50:03;;;;;;;0.3;0.3;;;;;;;18.7;100.0;101440;;;;
2022/08/27 00:51:00;;;;;;;0.2;0.2;;;;;;;18.7;100.0;101440;;;;
2022/08/27 00:52:03;;;;;;;0.2;0.2;;;;;;;18.5;100.0;101450;;;;
2022/08/27 00:53:04;;;;;;;0.2;0.2;;;;;;;18.5;100.0;101450;;;;
2022/08/27 00:54:01;;;;;;;0.2;0.2;;;;;;;18.3;100.0;101450;;;;
2022/08/27 00:55:05;;;;;;;0.2;0.2;;;;;;;18.3;100.0;101450;;;;
2022/08/27 00:56:09;;;;;;;0.2;0.2;;;;;;;18.5;100.0;101450;;;;
2022/08/27 00:57:00;;;;;;;0.2;0.2;;;;;;;18.5;100.0;101450;;;;
2022/08/27 00:58:05;;;;;;;0.2;0.2;;;;;;;18.5;100.0;101450;;;;
2022/08/27 00:59:00;;;;;;;0.2;0.2;;;;;;;18.5;100.0;101450;;;;
2022/08/27 01:00:00;;;;;;;0.2;0.2;;;;;;;18.5;100.0;101450;;;;
2022/08/27 01:01:00;;;;;;;0.2;0.2;;;;;;;18.5;100.0;101450;;;;
2022/08/27 01:03:00;;;;;;;0.2;0.2;;;;;;;18.6;100.0;101450;;;;
2022/08/27 01:04:02;;;;;;;0.2;0.2;;;;;;;18.5;100.0;101450;;;;
2022/08/27 01:05:03;;;;;;;0.2;0.2;;;;;;;18.5;100.0;101450;;;;
2022/08/27 01:06:01;;;;;;;0.2;0.2;;;;;;;18.5;100.0;101450;;;;
2022/08/27 01:07:01;;;;;;;0.2;0.2;;;;;;;18.5;100.0;101450;;;;
2022/08/27 01:08:05;;;;;;;0.2;0.2;;;;;;;18.5;100.0;101450;;;;
2022/08/27 01:09:03;;;;;;;0.2;0.2;;;;;;;18.5;100.0;101450;;;;
2022/08/27 01:10:01;;;;;;;0.2;0.2;;;;;;;18.5;100.0;101450;;;;
2022/08/27 01:11:01;;;;;;;0.3;0.3;;;;;;;18.5;100.0;101450;;;;
2022/08/27 01:12:00;;;;;;;0.3;0.3;;;;;;;18.4;100.0;101450;;;;
2022/08/27 01:13:01;;;;;;;0.3;0.3;;;;;;;18.4;100.0;101450;;;;
2022/08/27 01:14:01;;;;;;;0.3;0.3;;;;;;;18.4;100.0;101450;;;;
2022/08/27 01:15:02;;;;;;;0.3;0.3;;;;;;;18.4;100.0;101450;;;;
2022/08/27 01:16:00;;;;;;;0.3;0.3;;;;;;;18.4;100.0;101450;;;;
2022/08/27 01:17:01;;;;;;;0.3;0.3;;;;;;;18.4;100.0;101450;;;;
2022/08/27 01:18:02;;;;;;;0.3;0.3;;;;;;;18.4;100.0;101450;;;;
2022/08/27 01:19:00;;;;;;;0.3;0.3;;;;;;;18.4;100.0;101450;;;;
2022/08/27 01:20:03;;;;;;;0.3;0.3;;;;;;;18.3;100.0;101450;;;;
2022/08/27 01:21:08;;;;;;;0.3;0.3;;;;;;;18.3;100.0;101450;;;;
2022/08/27 01:22:01;;;;;;;0.3;0.3;;;;;;;18.2;100.0;101450;;;;
2022/08/27 01:23:03;;;;;;;0.3;0.3;;;;;;;18.2;100.0;101450;;;;
2022/08/27 01:24:10;;;;;;;0.3;0.3;;;;;;;18.3;100.0;101450;;;;
2022/08/27 01:25:03;;;;;;;0.3;0.3;;;;;;;18.3;100.0;101450;;;;
2022/08/27 01:26:01;;;;;;;0.3;0.3;;;;;;;18.3;100.0;101450;;;;
2022/08/27 01:27:01;;;;;;;0.3;0.3;;;;;;;18.3;100.0;101450;;;;
2022/08/27 01:28:02;;;;;;;0.3;0.3;;;;;;;18.3;100.0;101450;;;;
2022/08/27 01:29:00;;;;;;;0.3;0.3;;;;;;;18.3;100.0;101450;;;;
2022/08/27 01:30:01;;;;;;;0.3;0.3;;;;;;;18.3;100.0;101450;;;;
2022/08/27 01:31:00;;;;;;;0.3;0.3;;;;;;;18.3;100.0;101450;;;;
2022/08/27 01:32:09;;;;;;;0.3;0.3;;;;;;;18.2;100.0;101440;;;;
2022/08/27 01:33:00;;;;;;;0.3;0.3;;;;;;;18.2;100.0;101440;;;;
2022/08/27 01:34:02;;;;;;;0.3;0.3;;;;;;;18.2;100.0;101440;;;;
2022/08/27 01:35:01;;;;;;;0.3;0.3;;;;;;;18.2;100.0;101440;;;;
2022/08/27 01:36:00;;;;;;;0.3;0.3;;;;;;;18.2;100.0;101440;;;;
2022/08/27 01:37:00;;;;;;;0.3;0.3;;;;;;;18.2;100.0;101440;;;;
2022/08/27 01:38:00;;;;;;;0.3;0.3;;;;;;;18.2;100.0;101440;;;;
2022/08/27 01:39:00;;;;;;;0.3;0.3;;;;;;;18.2;100.0;101440;;;;
2022/08/27 01:40:01;;;;;;;0.3;0.3;;;;;;;18.2;100.0;101440;;;;
2022/08/27 01:41:01;;;;;;;0.3;0.3;;;;;;;18.2;100.0;101440;;;;
2022/08/27 01:42:10;;;;;;;0.3;0.3;;;;;;;18.1;100.0;101440;;;;
2022/08/27 01:43:00;;;;;;;0.3;0.3;;;;;;;18.1;100.0;101440;;;;
2022/08/27 01:44:00;;;;;;;0.3;0.3;;;;;;;18.2;100.0;101440;;;;
2022/08/27 01:45:06;;;;;;;0.3;0.3;;;;;;;18.2;100.0;101440;;;;
2022/08/27 01:46:00;;;;;;;0.3;0.3;;;;;;;18.1;100.0;101440;;;;
2022/08/27 01:47:00;;;;;;;0.3;0.3;;;;;;;18.1;100.0;101440;;;;
2022/08/27 01:48:01;;;;;;;0.3;0.3;;;;;;;18.0;100.0;101440;;;;
2022/08/27 01:49:00;;;;;;;0.3;0.3;;;;;;;18.0;100.0;101440;;;;
2022/08/27 01:50:01;;;;;;;0.3;0.3;;;;;;;18.0;100.0;101440;;;;
2022/08/27 01:51:00;;;;;;;0.2;0.2;;;;;;;18.0;100.0;101440;;;;
2022/08/27 01:52:00;;;;;;;0.2;0.2;;;;;;;18.1;100.0;101440;;;;
2022/08/27 01:53:01;;;;;;;0.2;0.2;;;;;;;18.1;100.0;101440;;;;
2022/08/27 01:54:00;;;;;;;0.2;0.2;;;;;;;18.1;100.0;101440;;;;
2022/08/27 01:55:00;;;;;;;0.2;0.2;;;;;;;18.1;100.0;101440;;;;
2022/08/27 01:56:00;;;;;;;0.2;0.2;;;;;;;18.0;100.0;101440;;;;
2022/08/27 01:57:00;;;;;;;0.2;0.2;;;;;;;18.0;100.0;101440;;;;
2022/08/27 01:58:01;;;;;;;0.2;0.2;;;;;;;18.0;100.0;101440;;;;
2022/08/27 01:59:00;;;;;;;0.2;0.2;;;;;;;18.0;100.0;101440;;;;
2022/08/27 02:00:05;;;;;;;0.2;0.2;;;;;;;18.0;100.0;101440;;;;
2022/08/27 02:01:03;;;;;;;0.2;0.2;;;;;;;18.0;100.0;101440;;;;
2022/08/27 02:02:01;;;;;;;0.2;0.2;;;;;;;18.0;100.0;101440;;;;
2022/08/27 02:03:00;;;;;;;0.2;0.2;;;;;;;18.0;100.0;101440;;;;
2022/08/27 02:04:00;;;;;;;0.2;0.2;;;;;;;18.0;100.0;101430;;;;
2022/08/27 02:05:00;;;;;;;0.2;0.2;;;;;;;18.0;100.0;101430;;;;
2022/08/27 02:06:01;;;;;;;0.2;0.2;;;;;;;17.7;100.0;101440;;;;
2022/08/27 02:07:00;;;;;;;0.2;0.2;;;;;;;17.7;100.0;101440;;;;
2022/08/27 02:08:00;;;;;;;0.2;0.2;;;;;;;17.8;100.0;101440;;;;
2022/08/27 02:09:00;;;;;;;0.2;0.2;;;;;;;17.8;100.0;101440;;;;
2022/08/27 02:10:00;;;;;;;0.2;0.2;;;;;;;17.9;100.0;101430;;;;
2022/08/27 02:11:00;;;;;;;0.2;0.2;;;;;;;17.9;100.0;101430;;;;
2022/08/27 02:12:00;;;;;;;0.2;0.2;;;;;;;17.9;100.0;101430;;;;
2022/08/27 02:13:00;;;;;;;0.2;0.2;;;;;;;17.9;100.0;101430;;;;
2022/08/27 02:14:00;;;;;;;0.2;0.2;;;;;;;17.9;100.0;101430;;;;
2022/08/27 02:15:00;;;;;;;0.2;0.2;;;;;;;17.9;100.0;101430;;;;
2022/08/27 02:16:00;;;;;;;0.2;0.2;;;;;;;17.8;100.0;101430;;;;
2022/08/27 02:17:00;;;;;;;0.2;0.2;;;;;;;17.8;100.0;101430;;;;
2022/08/27 02:18:00;;;;;;;0.2;0.2;;;;;;;17.8;100.0;101420;;;;
2022/08/27 02:19:00;;;;;;;0.2;0.2;;;;;;;17.8;100.0;101420;;;;
2022/08/27 02:20:00;;;;;;;0.2;0.2;;;;;;;17.8;100.0;101430;;;;
2022/08/27 02:21:00;;;;;;;0.2;0.2;;;;;;;17.8;100.0;101430;;;;
2022/08/27 02:22:00;;;;;;;0.2;0.2;;;;;;;17.8;100.0;101420;;;;
2022/08/27 02:23:01;;;;;;;0.2;0.2;;;;;;;17.8;100.0;101420;;;;
2022/08/27 02:24:00;;;;;;;0.2;0.2;;;;;;;17.7;100.0;101420;;;;
2022/08/27 02:25:00;;;;;;;0.2;0.2;;;;;;;17.7;100.0;101420;;;;
2022/08/27 02:26:00;;;;;;;0.2;0.2;;;;;;;17.8;100.0;101430;;;;
2022/08/27 02:27:00;;;;;;;0.2;0.2;;;;;;;17.8;100.0;101430;;;;
2022/08/27 02:28:00;;;;;;;0.2;0.2;;;;;;;17.7;100.0;101430;;;;
2022/08/27 02:29:00;;;;;;;0.2;0.2;;;;;;;17.7;100.0;101430;;;;
2022/08/27 02:30:00;;;;;;;0.2;0.2;;;;;;;17.6;100.0;101430;;;;
2022/08/27 02:31:00;;;;;;;0.3;0.3;;;;;;;17.6;100.0;101430;;;;
2022/08/27 02:32:00;;;;;;;0.3;0.3;;;;;;;17.6;100.0;101430;;;;
2022/08/27 02:33:01;;;;;;;0.3;0.3;;;;;;;17.6;100.0;101430;;;;
2022/08/27 02:34:00;;;;;;;0.3;0.3;;;;;;;17.7;100.0;101420;;;;
2022/08/27 02:35:00;;;;;;;0.3;0.3;;;;;;;17.7;100.0;101420;;;;
2022/08/27 02:36:00;;;;;;;0.3;0.3;;;;;;;17.7;100.0;101420;;;;
2022/08/27 02:37:00;;;;;;;0.3;0.3;;;;;;;17.7;100.0;101420;;;;
2022/08/27 02:38:00;;;;;;;0.3;0.3;;;;;;;17.6;100.0;101420;;;;
2022/08/27 02:39:00;;;;;;;0.3;0.3;;;;;;;17.6;100.0;101420;;;;
2022/08/27 02:40:00;;;;;;;0.3;0.3;;;;;;;17.5;100.0;101420;;;;
2022/08/27 02:41:00;;;;;;;0.3;0.3;;;;;;;17.5;100.0;101420;;;;
2022/08/27 02:42:00;;;;;;;0.3;0.3;;;;;;;17.5;100.0;101420;;;;
2022/08/27 02:43:00;;;;;;;0.3;0.3;;;;;;;17.5;100.0;101420;;;;
2022/08/27 02:44:01;;;;;;;0.3;0.3;;;;;;;17.5;100.0;101420;;;;
2022/08/27 02:45:00;;;;;;;0.3;0.3;;;;;;;17.5;100.0;101420;;;;
2022/08/27 02:46:00;;;;;;;0.3;0.3;;;;;;;17.6;100.0;101420;;;;
2022/08/27 02:47:01;;;;;;;0.3;0.3;;;;;;;17.6;100.0;101420;;;;
2022/08/27 02:48:00;;;;;;;0.3;0.3;;;;;;;17.5;100.0;101410;;;;
2022/08/27 02:49:00;;;;;;;0.3;0.3;;;;;;;17.5;100.0;101410;;;;
2022/08/27 02:50:00;;;;;;;0.3;0.3;;;;;;;17.4;100.0;101410;;;;
2022/08/27 02:51:00;;;;;;;0.3;0.3;;;;;;;17.4;100.0;101410;;;;
2022/08/27 02:52:02;;;;;;;0.3;0.3;;;;;;;17.5;100.0;101410;;;;
2022/08/27 02:53:01;;;;;;;0.3;0.3;;;;;;;17.5;100.0;101410;;;;
2022/08/27 02:54:02;;;;;;;0.3;0.3;;;;;;;17.5;100.0;101420;;;;
2022/08/27 02:55:00;;;;;;;0.3;0.3;;;;;;;17.5;100.0;101420;;;;
2022/08/27 02:56:00;;;;;;;0.3;0.3;;;;;;;17.5;100.0;101420;;;;
2022/08/27 02:57:00;;;;;;;0.3;0.3;;;;;;;17.5;100.0;101420;;;;
2022/08/27 02:58:00;;;;;;;0.3;0.3;;;;;;;17.5;100.0;101420;;;;
2022/08/27 02:59:00;;;;;;;0.3;0.3;;;;;;;17.5;100.0;101420;;;;
2022/08/27 03:00:00;;;;;;;0.3;0.3;;;;;;;17.3;100.0;101420;;;;
2022/08/27 03:01:01;;;;;;;0.3;0.3;;;;;;;17.3;100.0;101420;;;;
2022/08/27 03:02:00;;;;;;;0.3;0.3;;;;;;;17.3;100.0;101420;;;;
2022/08/27 03:03:01;;;;;;;0.3;0.3;;;;;;;17.3;100.0;101420;;;;
2022/08/27 03:04:01;;;;;;;0.3;0.3;;;;;;;17.5;100.0;101420;;;;
2022/08/27 03:05:00;;;;;;;0.3;0.3;;;;;;;17.5;100.0;101420;;;;
2022/08/27 03:06:00;;;;;;;0.3;0.3;;;;;;;17.4;100.0;101420;;;;
2022/08/27 03:07:00;;;;;;;0.3;0.3;;;;;;;17.4;100.0;101420;;;;
2022/08/27 03:08:00;;;;;;;0.3;0.3;;;;;;;17.5;100.0;101420;;;;
2022/08/27 03:09:00;;;;;;;0.3;0.3;;;;;;;17.5;100.0;101420;;;;
2022/08/27 03:10:00;;;;;;;0.3;0.3;;;;;;;17.5;100.0;101420;;;;
2022/08/27 03:11:00;;;;;;;0.3;0.3;;;;;;;17.5;100.0;101420;;;;
2022/08/27 03:12:00;;;;;;;0.3;0.3;;;;;;;17.6;100.0;101410;;;;
2022/08/27 03:13:00;;;;;;;0.3;0.3;;;;;;;17.6;100.0;101410;;;;
2022/08/27 03:14:00;;;;;;;0.3;0.3;;;;;;;17.6;100.0;101420;;;;
2022/08/27 03:15:00;;;;;;;0.3;0.3;;;;;;;17.6;100.0;101420;;;;
2022/08/27 03:16:00;;;;;;;0.3;0.3;;;;;;;17.4;100.0;101420;;;;
2022/08/27 03:18:16;;;;;;;0.3;0.3;;;;;;;17.4;100.0;101420;;;;
2022/08/27 03:19:00;;;;;;;0.3;0.3;;;;;;;17.4;100.0;101420;;;;
2022/08/27 03:20:01;;;;;;;0.3;0.3;;;;;;;17.4;100.0;101410;;;;
2022/08/27 03:21:01;;;;;;;0.3;0.3;;;;;;;17.4;100.0;101410;;;;
2022/08/27 03:22:00;;;;;;;0.3;0.3;;;;;;;17.3;100.0;101410;;;;
2022/08/27 03:23:00;;;;;;;0.3;0.3;;;;;;;17.3;100.0;101410;;;;
2022/08/27 03:24:10;;;;;;;0.3;0.3;;;;;;;17.4;100.0;101420;;;;
2022/08/27 03:25:01;;;;;;;0.3;0.3;;;;;;;17.4;100.0;101420;;;;
2022/08/27 03:26:03;;;;;;;0.3;0.3;;;;;;;17.4;100.0;101410;;;;
2022/08/27 03:27:00;;;;;;;0.3;0.3;;;;;;;17.4;100.0;101410;;;;
2022/08/27 03:28:00;;;;;;;0.3;0.3;;;;;;;17.4;100.0;101420;;;;
2022/08/27 03:29:00;;;;;;;0.3;0.3;;;;;;;17.4;100.0;101420;;;;
2022/08/27 03:30:04;;;;;;;0.3;0.3;;;;;;;17.4;100.0;101410;;;;
2022/08/27 03:31:01;;;;;;;0.3;0.3;;;;;;;17.4;100.0;101410;;;;
2022/08/27 03:32:00;;;;;;;0.3;0.3;;;;;;;17.3;100.0;101420;;;;
2022/08/27 03:33:00;;;;;;;0.3;0.3;;;;;;;17.3;100.0;101420;;;;
2022/08/27 03:34:01;;;;;;;0.3;0.3;;;;;;;17.4;100.0;101420;;;;
2022/08/27 03:35:00;;;;;;;0.3;0.3;;;;;;;17.4;100.0;101420;;;;
2022/08/27 03:36:00;;;;;;;0.3;0.3;;;;;;;17.3;100.0;101420;;;;
2022/08/27 03:37:00;;;;;;;0.3;0.3;;;;;;;17.3;100.0;101420;;;;
2022/08/27 03:38:01;;;;;;;0.3;0.3;;;;;;;17.3;100.0;101420;;;;
2022/08/27 03:39:00;;;;;;;0.3;0.3;;;;;;;17.3;100.0;101420;;;;
2022/08/27 03:40:00;;;;;;;0.3;0.3;;;;;;;17.4;100.0;101420;;;;
2022/08/27 03:41:00;;;;;;;0.3;0.3;;;;;;;17.4;100.0;101420;;;;
2022/08/27 03:42:00;;;;;;;0.3;0.3;;;;;;;17.3;100.0;101420;;;;
2022/08/27 03:43:00;;;;;;;0.3;0.3;;;;;;;17.3;100.0;101420;;;;
2022/08/27 03:44:00;;;;;;;0.3;0.3;;;;;;;17.4;100.0;101420;;;;
2022/08/27 03:45:00;;;;;;;0.3;0.3;;;;;;;17.4;100.0;101420;;;;
2022/08/27 03:46:02;;;;;;;0.3;0.3;;;;;;;17.5;100.0;101420;;;;
2022/08/27 03:47:00;;;;;;;0.3;0.3;;;;;;;17.5;100.0;101420;;;;
2022/08/27 03:48:00;;;;;;;0.3;0.3;;;;;;;17.5;100.0;101420;;;;
2022/08/27 03:49:00;;;;;;;0.3;0.3;;;;;;;17.5;100.0;101420;;;;
2022/08/27 03:50:00;;;;;;;0.3;0.3;;;;;;;17.5;100.0;101430;;;;
2022/08/27 03:51:05;;;;;;;0.3;0.3;;;;;;;17.5;100.0;101430;;;;
2022/08/27 03:52:00;;;;;;;0.3;0.3;;;;;;;17.5;100.0;101420;;;;
2022/08/27 03:53:00;;;;;;;0.3;0.3;;;;;;;17.5;100.0;101420;;;;
2022/08/27 03:54:00;;;;;;;0.3;0.3;;;;;;;17.5;100.0;101430;;;;
2022/08/27 03:55:00;;;;;;;0.3;0.3;;;;;;;17.5;100.0;101430;;;;
2022/08/27 03:56:00;;;;;;;0.3;0.3;;;;;;;17.5;100.0;101420;;;;
2022/08/27 03:57:00;;;;;;;0.3;0.3;;;;;;;17.5;100.0;101420;;;;
2022/08/27 03:58:00;;;;;;;0.3;0.3;;;;;;;17.4;100.0;101430;;;;
2022/08/27 03:59:00;;;;;;;0.3;0.3;;;;;;;17.4;100.0;101430;;;;
2022/08/27 04:00:00;;;;;;;0.3;0.3;;;;;;;17.4;100.0;101430;;;;
2022/08/27 04:01:00;;;;;;;0.3;0.3;;;;;;;17.4;100.0;101430;;;;
2022/08/27 04:02:00;;;;;;;0.3;0.3;;;;;;;17.5;100.0;101430;;;;
2022/08/27 04:03:00;;;;;;;0.3;0.3;;;;;;;17.5;100.0;101430;;;;
2022/08/27 04:04:00;;;;;;;0.3;0.3;;;;;;;17.5;100.0;101430;;;;
2022/08/27 04:05:00;;;;;;;0.3;0.3;;;;;;;17.5;100.0;101430;;;;
2022/08/27 04:06:02;;;;;;;0.3;0.3;;;;;;;17.5;100.0;101430;;;;
2022/08/27 04:07:00;;;;;;;0.3;0.3;;;;;;;17.5;100.0;101430;;;;
2022/08/27 04:08:00;;;;;;;0.3;0.3;;;;;;;17.6;100.0;101430;;;;
2022/08/27 04:09:00;;;;;;;0.3;0.3;;;;;;;17.6;100.0;101430;;;;
2022/08/27 04:10:00;;;;;;;0.3;0.3;;;;;;;17.6;100.0;101430;;;;
2022/08/27 04:11:04;;;;;;;0.5;0.5;;;;;;;17.6;100.0;101430;;;;
2022/08/27 04:12:00;;;;;;;0.5;0.5;;;;;;;17.5;100.0;101420;;;;
2022/08/27 04:13:00;;;;;;;0.5;0.5;;;;;;;17.5;100.0;101420;;;;
2022/08/27 04:14:02;;;;;;;0.5;0.5;;;;;;;17.6;100.0;101420;;;;
2022/08/27 04:15:00;;;;;;;0.5;0.5;;;;;;;17.6;100.0;101420;;;;
2022/08/27 04:16:00;;;;;;;0.5;0.5;;;;;;;17.5;100.0;101420;;;;
2022/08/27 04:17:01;;;;;;;0.5;0.5;;;;;;;17.5;100.0;101420;;;;
2022/08/27 04:18:00;;;;;;;0.5;0.5;;;;;;;17.5;100.0;101420;;;;
2022/08/27 04:19:00;;;;;;;0.5;0.5;;;;;;;17.5;100.0;101420;;;;
2022/08/27 04:20:11;;;;;;;0.5;0.5;;;;;;;17.5;100.0;101420;;;;
2022/08/27 04:21:06;;;;;;;0.5;0.5;;;;;;;17.5;100.0;101420;;;;
2022/08/27 04:22:02;;;;;;;0.5;0.5;;;;;;;17.5;100.0;101420;;;;
2022/08/27 04:23:00;;;;;;;0.5;0.5;;;;;;;17.5;100.0;101420;;;;
2022/08/27 04:24:00;;;;;;;0.5;0.5;;;;;;;17.5;100.0;101420;;;;
2022/08/27 04:25:00;;;;;;;0.5;0.5;;;;;;;17.5;100.0;101420;;;;
2022/08/27 04:26:03;;;;;;;0.5;0.5;;;;;;;17.5;100.0;101420;;;;
2022/08/27 04:27:01;;;;;;;0.5;0.5;;;;;;;17.5;100.0;101420;;;;
2022/08/27 04:28:00;;;;;;;0.5;0.5;;;;;;;17.6;100.0;101420;;;;
2022/08/27 04:29:00;;;;;;;0.5;0.5;;;;;;;17.6;100.0;101420;;;;
2022/08/27 04:30:00;;;;;;;0.5;0.5;;;;;;;17.6;100.0;101420;;;;
2022/08/27 04:31:01;;;;;;;0.3;0.3;;;;;;;17.6;100.0;101420;;;;
2022/08/27 04:32:00;;;;;;;0.3;0.3;;;;;;;17.6;100.0;101420;;;;
2022/08/27 04:33:00;;;;;;;0.3;0.3;;;;;;;17.6;100.0;101420;;;;
2022/08/27 04:34:00;;;;;;;0.3;0.3;;;;;;;17.5;100.0;101420;;;;
2022/08/27 04:35:00;;;;;;;0.3;0.3;;;;;;;17.5;100.0;101420;;;;
2022/08/27 04:36:03;;;;;;;0.3;0.3;;;;;;;17.5;100.0;101430;;;;
2022/08/27 04:37:00;;;;;;;0.3;0.3;;;;;;;17.5;100.0;101430;;;;
2022/08/27 04:38:00;;;;;;;0.3;0.3;;;;;;;17.6;100.0;101430;;;;
2022/08/27 04:39:00;;;;;;;0.3;0.3;;;;;;;17.6;100.0;101430;;;;
2022/08/27 04:40:00;;;;;;;0.3;0.3;;;;;;;17.5;100.0;101420;;;;
2022/08/27 04:42:00;;;;;;;0.3;0.3;;;;;;;17.6;100.0;101430;;;;
2022/08/27 04:43:00;;;;;;;0.3;0.3;;;;;;;17.6;100.0;101430;;;;
2022/08/27 04:44:06;;;;;;;0.3;0.3;;;;;;;17.5;100.0;101430;;;;
2022/08/27 04:45:00;;;;;;;0.3;0.3;;;;;;;17.5;100.0;101430;;;;
2022/08/27 04:46:00;;;;;;;0.3;0.3;;;;;;;17.5;100.0;101430;;;;
2022/08/27 04:47:01;;;;;;;0.3;0.3;;;;;;;17.5;100.0;101430;;;;
2022/08/27 04:48:00;;;;;;;0.3;0.3;;;;;;;17.5;100.0;101430;;;;
2022/08/27 04:49:01;;;;;;;0.3;0.3;;;;;;;17.5;100.0;101430;;;;
2022/08/27 04:50:01;;;;;;;0.3;0.3;;;;;;;17.6;100.0;101430;;;;
2022/08/27 04:51:00;;;;;;;0.3;0.3;;;;;;;17.6;100.0;101430;;;;
2022/08/27 04:52:00;;;;;;;0.3;0.3;;;;;;;17.6;100.0;101430;;;;
2022/08/27 04:53:00;;;;;;;0.3;0.3;;;;;;;17.6;100.0;101430;;;;
2022/08/27 04:54:01;;;;;;;0.3;0.3;;;;;;;17.5;100.0;101430;;;;
2022/08/27 04:55:00;;;;;;;0.3;0.3;;;;;;;17.5;100.0;101430;;;;
2022/08/27 04:56:00;;;;;;;0.3;0.3;;;;;;;17.6;100.0;101430;;;;
2022/08/27 04:57:01;;;;;;;0.3;0.3;;;;;;;17.6;100.0;101430;;;;
2022/08/27 04:58:00;;;;;;;0.3;0.3;;;;;;;17.6;100.0;101430;;;;
2022/08/27 04:59:02;;;;;;;0.3;0.3;;;;;;;17.6;100.0;101430;;;;
2022/08/27 05:00:00;;;;;;;0.3;0.3;;;;;;;17.6;100.0;101430;;;;
2022/08/27 05:01:00;;;;;;;0.3;0.3;;;;;;;17.6;100.0;101430;;;;
2022/08/27 05:02:04;;;;;;;0.3;0.3;;;;;;;17.6;100.0;101440;;;;
2022/08/27 05:03:01;;;;;;;0.3;0.3;;;;;;;17.6;100.0;101440;;;;
2022/08/27 05:04:00;;;;;;;0.3;0.3;;;;;;;17.5;100.0;101440;;;;
2022/08/27 05:05:00;;;;;;;0.3;0.3;;;;;;;17.5;100.0;101440;;;;
2022/08/27 05:06:02;;;;;;;0.3;0.3;;;;;;;17.5;100.0;101440;;;;
2022/08/27 05:07:00;;;;;;;0.3;0.3;;;;;;;17.5;100.0;101440;;;;
2022/08/27 05:08:00;;;;;;;0.3;0.3;;;;;;;17.5;100.0;101440;;;;
2022/08/27 05:09:00;;;;;;;0.3;0.3;;;;;;;17.5;100.0;101440;;;;
2022/08/27 05:10:00;;;;;;;0.3;0.3;;;;;;;17.6;100.0;101440;;;;
2022/08/27 05:11:00;;;;;;;0.4;0.4;;;;;;;17.6;100.0;101440;;;;
2022/08/27 05:12:00;;;;;;;0.4;0.4;;;;;;;17.7;100.0;101440;;;;
2022/08/27 05:13:00;;;;;;;0.4;0.4;;;;;;;17.7;100.0;101440;;;;
2022/08/27 05:14:01;;;;;;;0.4;0.4;;;;;;;17.6;100.0;101440;;;;
2022/08/27 05:15:00;;;;;;;0.4;0.4;;;;;;;17.6;100.0;101440;;;;
2022/08/27 05:16:01;;;;;;;0.4;0.4;;;;;;;17.5;100.0;101450;;;;
2022/08/27 05:17:00;;;;;;;0.4;0.4;;;;;;;17.5;100.0;101450;;;;
2022/08/27 05:18:01;;;;;;;0.4;0.4;;;;;;;17.5;100.0;101440;;;;
2022/08/27 05:19:00;;;;;;;0.4;0.4;;;;;;;17.5;100.0;101440;;;;
2022/08/27 05:20:00;;;;;;;0.4;0.4;;;;;;;17.5;100.0;101440;;;;
2022/08/27 05:21:00;;;;;;;0.4;0.4;;;;;;;17.5;100.0;101440;;;;
2022/08/27 05:22:00;;;;;;;0.4;0.4;;;;;;;17.6;100.0;101450;;;;
2022/08/27 05:23:00;;;;;;;0.4;0.4;;;;;;;17.6;100.0;101450;;;;
2022/08/27 05:24:01;;;;;;;0.4;0.4;;;;;;;17.5;100.0;101440;;;;
2022/08/27 05:25:00;;;;;;;0.4;0.4;;;;;;;17.5;100.0;101440;;;;
2022/08/27 05:26:00;;;;;;;0.4;0.4;;;;;;;17.5;100.0;101440;;;;
2022/08/27 05:27:01;;;;;;;0.4;0.4;;;;;;;17.5;100.0;101440;;;;
2022/08/27 05:28:00;;;;;;;0.4;0.4;;;;;;;17.6;100.0;101440;;;;
2022/08/27 05:29:00;;;;;;;0.4;0.4;;;;;;;17.6;100.0;101440;;;;
2022/08/27 05:30:00;;;;;;;0.4;0.4;;;;;;;17.6;100.0;101450;;;;
2022/08/27 05:31:03;;;;;;;0.3;0.3;;;;;;;17.6;100.0;101450;;;;
2022/08/27 05:32:00;;;;;;;0.3;0.3;;;;;;;17.7;100.0;101450;;;;
2022/08/27 05:33:00;;;;;;;0.3;0.3;;;;;;;17.7;100.0;101450;;;;
2022/08/27 05:34:00;;;;;;;0.3;0.3;;;;;;;17.7;100.0;101450;;;;
2022/08/27 05:35:00;;;;;;;0.3;0.3;;;;;;;17.7;100.0;101450;;;;
2022/08/27 05:36:00;;;;;;;0.3;0.3;;;;;;;17.8;100.0;101440;;;;
2022/08/27 05:37:00;;;;;;;0.3;0.3;;;;;;;17.8;100.0;101440;;;;
2022/08/27 05:38:00;;;;;;;0.3;0.3;;;;;;;17.9;100.0;101440;;;;
2022/08/27 05:39:01;;;;;;;0.3;0.3;;;;;;;17.9;100.0;101440;;;;
2022/08/27 05:40:01;;;;;;;0.3;0.3;;;;;;;17.8;100.0;101450;;;;
2022/08/27 05:41:01;;;;;;;0.3;0.3;;;;;;;17.8;100.0;101450;;;;
2022/08/27 05:42:00;;;;;;;0.3;0.3;;;;;;;17.8;100.0;101450;;;;
2022/08/27 05:43:00;;;;;;;0.3;0.3;;;;;;;17.8;100.0;101450;;;;
2022/08/27 05:44:14;;;;;;;0.3;0.3;;;;;;;17.9;100.0;101450;;;;
2022/08/27 05:45:00;;;;;;;0.3;0.3;;;;;;;17.9;100.0;101450;;;;
2022/08/27 05:46:04;;;;;;;0.3;0.3;;;;;;;17.9;100.0;101450;;;;
2022/08/27 05:47:01;;;;;;;0.3;0.3;;;;;;;17.9;100.0;101450;;;;
2022/08/27 05:48:00;;;;;;;0.3;0.3;;;;;;;17.9;100.0;101450;;;;
2022/08/27 05:49:00;;;;;;;0.3;0.3;;;;;;;17.9;100.0;101450;;;;
2022/08/27 05:50:00;;;;;;;0.3;0.3;;;;;;;18.0;100.0;101450;;;;
2022/08/27 05:51:08;;;;;;;0.2;0.2;;;;;;;18.0;100.0;101450;;;;
2022/08/27 05:52:00;;;;;;;0.2;0.2;;;;;;;18.0;100.0;101450;;;;
2022/08/27 05:53:00;;;;;;;0.2;0.2;;;;;;;18.0;100.0;101450;;;;
2022/08/27 05:54:13;;;;;;;0.2;0.2;;;;;;;18.0;100.0;101450;;;;
2022/08/27 05:55:00;;;;;;;0.2;0.2;;;;;;;18.0;100.0;101450;;;;
2022/08/27 05:56:00;;;;;;;0.2;0.2;;;;;;;18.0;100.0;101450;;;;
2022/08/27 05:57:00;;;;;;;0.2;0.2;;;;;;;18.0;100.0;101450;;;;
2022/08/27 05:58:00;;;;;;;0.2;0.2;;;;;;;18.0;100.0;101450;;;;
2022/08/27 06:01:05;;;;;;;0.2;0.2;;;;;;;18.1;100.0;101440;;;;
2022/08/27 06:02:00;;;;;;;0.2;0.2;;;;;;;18.1;100.0;101440;;;;
2022/08/27 06:03:00;;;;;;;0.2;0.2;;;;;;;18.1;100.0;101440;;;;
2022/08/27 06:04:00;;;;;;;0.2;0.2;;;;;;;18.1;100.0;101450;;;;
2022/08/27 06:05:00;;;;;;;0.2;0.2;;;;;;;18.1;100.0;101450;;;;
2022/08/27 06:06:01;;;;;;;0.2;0.2;;;;;;;18.2;100.0;101450;;;;
2022/08/27 06:07:00;;;;;;;0.2;0.2;;;;;;;18.2;100.0;101450;;;;
2022/08/27 06:08:00;;;;;;;0.2;0.2;;;;;;;18.3;100.0;101450;;;;
2022/08/27 06:09:00;;;;;;;0.2;0.2;;;;;;;18.3;100.0;101450;;;;
2022/08/27 06:10:00;;;;;;;0.2;0.2;;;;;;;18.2;100.0;101450;;;;
2022/08/27 06:11:00;;;;;;;0.3;0.3;;;;;;;18.2;100.0;101450;;;;
2022/08/27 06:12:00;;;;;;;0.3;0.3;;;;;;;18.3;100.0;101450;;;;
2022/08/27 06:13:00;;;;;;;0.3;0.3;;;;;;;18.3;100.0;101450;;;;
2022/08/27 06:14:00;;;;;;;0.3;0.3;;;;;;;18.4;100.0;101450;;;;
2022/08/27 06:15:00;;;;;;;0.3;0.3;;;;;;;18.4;100.0;101450;;;;
2022/08/27 06:16:01;;;;;;;0.3;0.3;;;;;;;18.4;100.0;101450;;;;
2022/08/27 06:17:00;;;;;;;0.3;0.3;;;;;;;18.4;100.0;101450;;;;
2022/08/27 06:18:00;;;;;;;0.3;0.3;;;;;;;18.5;100.0;101450;;;;
2022/08/27 06:19:00;;;;;;;0.3;0.3;;;;;;;18.5;100.0;101450;;;;
2022/08/27 06:20:00;;;;;;;0.3;0.3;;;;;;;18.5;100.0;101460;;;;
2022/08/27 06:21:00;;;;;;;0.3;0.3;;;;;;;18.5;100.0;101460;;;;
2022/08/27 06:22:10;;;;;;;0.3;0.3;;;;;;;18.6;100.0;101450;;;;
2022/08/27 06:23:00;;;;;;;0.3;0.3;;;;;;;18.6;100.0;101450;;;;
2022/08/27 06:24:00;;;;;;;0.3;0.3;;;;;;;18.6;100.0;101450;;;;
2022/08/27 06:25:00;;;;;;;0.3;0.3;;;;;;;18.6;100.0;101450;;;;
2022/08/27 06:26:00;;;;;;;0.3;0.3;;;;;;;18.7;100.0;101450;;;;
2022/08/27 06:27:00;;;;;;;0.3;0.3;;;;;;;18.7;100.0;101450;;;;